Terminal Aerodrome Forecast
Issued by NWS Louisville, KY

Home | Current Version | Previous Version | Text Only | Print | Product List | Glossary On
Versions: 1 2 3 4 5 6 7 8 9 10 11 12 13 14 15 16 17 18 19 20
000
FTUS43 KLMK 152300
TAFBWG
TAF
KBWG 152328Z 1600/1624 08007KT P6SM VCSH SCT025 BKN040
     FM160200 12006KT P6SM VCSH BKN025
     FM160700 15005KT 6SM BR BKN015
     FM161300 18010KT 6SM BR VCSH BKN012
     FM162200 20007KT P6SM BKN050=

USA.gov is the U.S. government's official web portal to all federal, state and local government web resources and services.